createdAt,value
2023-04-08T00:00:29.942Z,6.70
2023-04-08T00:02:56.898Z,5.80
2023-04-08T00:05:28.501Z,6.93
2023-04-08T00:07:57.599Z,6.90
2023-04-08T00:10:30.395Z,6.07
2023-04-08T00:13:02.062Z,6.27
2023-04-08T00:15:36.514Z,7.30
2023-04-08T00:18:07.535Z,5.57
2023-04-08T00:20:41.255Z,6.13
2023-04-08T00:23:11.228Z,7.17
2023-04-08T00:25:40.395Z,6.87
2023-04-08T00:28:09.452Z,7.40
2023-04-08T00:30:38.484Z,6.70
2023-04-08T00:33:05.368Z,7.23
2023-04-08T00:35:39.211Z,6.60
2023-04-08T00:38:08.201Z,8.57
2023-04-08T00:40:39.167Z,6.43
2023-04-08T00:43:08.519Z,6.40
2023-04-08T00:45:38.197Z,6.57
2023-04-08T00:48:07.611Z,7.20
2023-04-08T00:50:37.343Z,6.53
2023-04-08T00:53:09.077Z,7.77
2023-04-08T00:55:38.378Z,7.50
2023-04-08T00:58:07.744Z,6.83
2023-04-08T01:00:43.314Z,7.30
2023-04-08T01:03:51.660Z,5.90
2023-04-08T01:06:42.917Z,7.60
2023-04-08T01:09:16.148Z,8.43
2023-04-08T01:11:47.769Z,6.90
2023-04-08T01:14:23.938Z,7.13
2023-04-08T01:16:56.579Z,5.63
2023-04-08T01:19:39.392Z,6.80
2023-04-08T01:22:43.950Z,5.90
2023-04-08T01:25:19.055Z,4.70
2023-04-08T01:27:49.271Z,5.80
2023-04-08T01:30:24.641Z,6.50
2023-04-08T01:32:56.959Z,5.23
2023-04-08T01:35:24.628Z,5.40
2023-04-08T01:37:56.946Z,4.50
2023-04-08T01:40:30.781Z,4.80
2023-04-08T01:43:08.173Z,4.70
2023-04-08T01:45:41.419Z,4.07
2023-04-08T01:48:18.111Z,4.60
2023-04-08T01:50:45.733Z,4.77
2023-04-08T01:53:13.683Z,4.27
2023-04-08T01:55:48.373Z,5.10
2023-04-08T01:58:25.033Z,4.60
2023-04-08T02:00:58.601Z,5.00
2023-04-08T02:03:30.424Z,5.50
2023-04-08T02:05:57.491Z,4.97
2023-04-08T02:08:26.544Z,5.87
2023-04-08T02:10:58.132Z,8.23
2023-04-08T02:13:30.700Z,7.10
2023-04-08T02:16:11.226Z,5.30
2023-04-08T02:18:45.169Z,4.70
2023-04-08T02:21:21.134Z,5.50
2023-04-08T02:23:51.505Z,5.90
2023-04-08T02:26:21.512Z,6.07
2023-04-08T02:28:54.454Z,6.87
2023-04-08T02:31:29.360Z,7.40
2023-04-08T02:33:58.637Z,6.03
2023-04-08T02:36:37.473Z,6.43
2023-04-08T02:39:09.783Z,6.97
2023-04-08T02:41:46.496Z,8.17
2023-04-08T02:44:13.384Z,6.73
2023-04-08T02:46:46.133Z,7.90
2023-04-08T02:49:20.343Z,7.53
2023-04-08T02:51:52.491Z,10.37
2023-04-08T02:54:26.679Z,7.43
2023-04-08T02:56:56.532Z,5.67
2023-04-08T02:59:25.578Z,7.00
2023-04-08T03:01:57.531Z,8.07
2023-04-08T03:04:26.819Z,6.80
2023-04-08T03:06:53.532Z,9.37
2023-04-08T03:09:24.531Z,6.63
2023-04-08T03:11:55.088Z,7.73
2023-04-08T03:14:24.093Z,6.20
2023-04-08T03:16:51.136Z,7.30
2023-04-08T03:19:17.971Z,5.93
2023-04-08T03:21:44.716Z,6.73
2023-04-08T03:24:14.487Z,8.13
2023-04-08T03:26:46.093Z,8.50
2023-04-08T03:29:17.465Z,6.87
2023-04-08T03:31:46.802Z,6.73
2023-04-08T03:34:18.217Z,5.90
2023-04-08T03:36:45.068Z,5.20
2023-04-08T03:39:16.705Z,6.20
2023-04-08T03:41:43.442Z,5.27
2023-04-08T03:44:17.683Z,7.47
2023-04-08T03:46:44.739Z,7.20
2023-04-08T03:49:14.341Z,8.20
2023-04-08T03:51:43.581Z,9.33
2023-04-08T03:54:10.339Z,6.17
2023-04-08T03:56:37.074Z,8.53
2023-04-08T03:59:10.851Z,7.17
2023-04-08T04:01:41.845Z,7.13
2023-04-08T04:04:13.713Z,6.50
2023-04-08T04:06:47.633Z,6.10
2023-04-08T04:09:19.854Z,8.77
2023-04-08T04:11:48.971Z,8.03
2023-04-08T04:14:20.651Z,6.63
2023-04-08T04:16:49.939Z,8.27
2023-04-08T04:19:21.516Z,8.80
2023-04-08T04:21:53.199Z,11.80
2023-04-08T04:24:24.636Z,10.47
2023-04-08T04:26:53.623Z,9.20
2023-04-08T04:29:22.406Z,7.80
2023-04-08T04:31:51.675Z,7.87
2023-04-08T04:34:23.694Z,6.60
2023-04-08T04:36:57.484Z,7.60
2023-04-08T04:39:27.601Z,7.47
2023-04-08T04:41:56.880Z,8.27
2023-04-08T04:44:30.766Z,8.60
2023-04-08T04:47:02.295Z,8.37
2023-04-08T04:49:31.703Z,8.20
2023-04-08T04:52:00.966Z,9.03
2023-04-08T04:54:30.193Z,8.93
2023-04-08T04:57:01.776Z,8.60
2023-04-08T04:59:35.939Z,10.83
2023-04-08T05:02:05.257Z,10.73
2023-04-08T05:04:39.379Z,9.50
2023-04-08T05:07:08.595Z,7.70
2023-04-08T05:09:37.592Z,9.40
2023-04-08T05:12:04.595Z,11.00
2023-04-08T05:14:31.328Z,13.50
2023-04-08T05:16:58.405Z,10.87
2023-04-08T05:19:30.064Z,11.77
2023-04-08T05:21:59.307Z,11.63
2023-04-08T05:24:33.151Z,11.33
2023-04-08T05:27:02.187Z,10.20
2023-04-08T05:29:33.667Z,13.53
2023-04-08T05:32:10.316Z,11.03
2023-04-08T05:34:42.304Z,10.03
2023-04-08T05:37:11.888Z,11.27
2023-04-08T05:39:46.442Z,12.07
2023-04-08T05:42:14.111Z,11.30
2023-04-08T05:44:44.182Z,14.10
2023-04-08T05:47:18.552Z,12.20
2023-04-08T05:49:51.259Z,10.17
2023-04-08T05:52:26.017Z,11.80
2023-04-08T05:54:55.206Z,10.93
2023-04-08T05:57:24.424Z,15.20
2023-04-08T05:59:51.298Z,10.97
2023-04-08T06:02:20.481Z,11.70
2023-04-08T06:04:47.491Z,10.60
2023-04-08T06:07:19.106Z,11.50
2023-04-08T06:09:50.534Z,11.50
2023-04-08T06:12:25.057Z,15.47
2023-04-08T06:14:57.804Z,11.73
2023-04-08T06:17:24.756Z,13.00
2023-04-08T06:19:53.696Z,11.73
2023-04-08T06:22:20.491Z,12.13
2023-04-08T06:24:49.485Z,13.27
2023-04-08T06:27:16.308Z,12.53
2023-04-08T06:29:43.407Z,13.23
2023-04-08T06:32:13.185Z,11.97
2023-04-08T06:34:41.204Z,14.43
2023-04-08T06:37:12.952Z,11.57
2023-04-08T06:39:44.854Z,12.20
2023-04-08T06:42:16.370Z,11.07
2023-04-08T06:44:59.486Z,11.13
2023-04-08T06:47:28.805Z,13.33
2023-04-08T06:49:58.075Z,11.20
2023-04-08T06:52:27.504Z,11.77
2023-04-08T06:54:57.252Z,15.53
2023-04-08T06:57:26.464Z,13.17
2023-04-08T06:59:58.246Z,12.10
2023-04-08T07:02:29.828Z,13.30
2023-04-08T07:05:01.571Z,12.10
2023-04-08T07:07:36.406Z,12.67
2023-04-08T07:10:05.904Z,12.10
2023-04-08T07:12:39.964Z,13.70
2023-04-08T07:15:09.826Z,13.13
2023-04-08T07:17:41.164Z,10.40
2023-04-08T07:20:10.979Z,13.43
2023-04-08T07:22:40.396Z,14.07
2023-04-08T07:25:12.008Z,12.90
2023-04-08T07:27:41.554Z,18.27
2023-04-08T07:30:11.054Z,12.00
2023-04-08T07:32:40.414Z,12.60
2023-04-08T07:35:11.990Z,12.60
2023-04-08T07:37:41.245Z,11.43
2023-04-08T07:40:13.598Z,12.10
2023-04-08T07:42:47.750Z,10.57
2023-04-08T07:45:19.830Z,11.00
2023-04-08T07:47:52.050Z,9.77
2023-04-08T07:50:21.740Z,10.27
2023-04-08T07:52:50.796Z,9.27
2023-04-08T07:55:17.620Z,13.70
2023-04-08T07:57:47.154Z,10.83
2023-04-08T08:00:21.801Z,12.23
2023-04-08T08:02:50.938Z,11.10
2023-04-08T08:05:22.619Z,10.70
2023-04-08T08:07:50.620Z,10.70
2023-04-08T08:10:19.639Z,10.40
2023-04-08T08:12:56.373Z,9.13
2023-04-08T08:15:28.098Z,9.47
2023-04-08T08:17:57.150Z,10.23
2023-04-08T08:20:23.958Z,8.90
2023-04-08T08:22:58.056Z,11.77
2023-04-08T08:25:27.132Z,9.43
2023-04-08T08:27:58.845Z,11.30
2023-04-08T08:30:26.677Z,8.97
2023-04-08T08:32:56.759Z,11.07
2023-04-08T08:35:30.714Z,10.50
2023-04-08T08:37:59.655Z,9.03
2023-04-08T08:40:28.771Z,9.90
2023-04-08T08:42:57.490Z,11.95
2023-04-08T08:45:24.264Z,10.43
2023-04-08T08:47:56.413Z,10.93
2023-04-08T08:50:23.447Z,12.07
2023-04-08T08:52:55.127Z,12.30
2023-04-08T08:55:50.220Z,10.40
2023-04-08T08:58:18.851Z,9.77
2023-04-08T09:00:48.634Z,10.23
2023-04-08T09:03:20.818Z,10.83
2023-04-08T09:05:59.486Z,8.57
2023-04-08T09:08:34.313Z,8.90
2023-04-08T09:11:17.147Z,7.40
2023-04-08T09:13:52.561Z,7.83
2023-04-08T09:16:23.520Z,7.33
2023-04-08T09:18:55.245Z,8.60
2023-04-08T09:21:27.549Z,10.07
2023-04-08T09:23:59.310Z,8.67
2023-04-08T09:26:27.317Z,8.83
2023-04-08T09:29:11.095Z,8.97
2023-04-08T09:31:44.507Z,8.80
2023-04-08T09:34:17.305Z,9.83
2023-04-08T09:36:49.486Z,8.53
2023-04-08T09:39:19.640Z,10.70
2023-04-08T09:41:50.216Z,10.40
2023-04-08T09:44:18.728Z,10.37
2023-04-08T09:46:51.818Z,9.13
2023-04-08T09:49:32.101Z,10.67
2023-04-08T09:52:08.164Z,12.40
2023-04-08T09:54:41.272Z,11.00
2023-04-08T09:57:16.725Z,12.70
2023-04-08T10:00:07.991Z,10.00
2023-04-08T10:02:55.093Z,9.67
2023-04-08T10:05:24.690Z,12.90
2023-04-08T10:07:58.837Z,13.80
2023-04-08T10:10:27.483Z,12.30
2023-04-08T10:12:54.751Z,11.43
2023-04-08T10:15:37.659Z,9.90
2023-04-08T10:18:09.929Z,14.80
2023-04-08T10:20:39.190Z,11.07
2023-04-08T10:23:08.292Z,10.93
2023-04-08T10:25:38.890Z,9.97
2023-04-08T10:28:14.493Z,11.50
2023-04-08T10:30:53.383Z,13.77
2023-04-08T10:33:37.266Z,12.23
2023-04-08T10:36:16.699Z,11.57
2023-04-08T10:38:43.590Z,10.97
2023-04-08T10:41:27.460Z,11.40
2023-04-08T10:44:03.346Z,10.63
2023-04-08T10:46:38.565Z,10.70
2023-04-08T10:49:05.837Z,12.07
2023-04-08T10:51:35.778Z,11.10
2023-04-08T10:54:08.743Z,11.37
2023-04-08T10:56:45.875Z,12.63
2023-04-08T10:59:16.619Z,11.03
2023-04-08T11:01:47.307Z,10.93
2023-04-08T11:04:23.741Z,12.60
2023-04-08T11:06:51.707Z,15.37
2023-04-08T11:09:18.715Z,12.53
2023-04-08T11:11:48.763Z,15.17
2023-04-08T11:14:22.137Z,13.13
2023-04-08T11:16:49.069Z,16.23
2023-04-08T11:19:16.027Z,11.40
2023-04-08T11:21:48.434Z,12.23
2023-04-08T11:24:18.153Z,10.60
2023-04-08T11:26:49.753Z,12.90
2023-04-08T11:29:19.505Z,12.97
2023-04-08T11:31:51.611Z,9.87
2023-04-08T11:34:25.485Z,11.77
2023-04-08T11:36:58.645Z,12.47
2023-04-08T11:39:25.952Z,13.03
2023-04-08T11:41:53.432Z,10.53
2023-04-08T11:44:20.181Z,9.97
2023-04-08T11:46:58.850Z,13.43
2023-04-08T11:49:28.526Z,8.70
2023-04-08T11:51:57.920Z,10.67
2023-04-08T11:54:32.390Z,9.27
2023-04-08T11:57:03.261Z,10.57
2023-04-08T11:59:32.579Z,8.37
2023-04-08T12:01:59.504Z,9.47
2023-04-08T12:04:31.053Z,8.10
2023-04-08T12:07:02.996Z,9.40
2023-04-08T12:09:34.689Z,9.07
2023-04-08T12:12:02.294Z,8.53
2023-04-08T12:14:29.183Z,8.80
2023-04-08T12:16:58.418Z,9.23
2023-04-08T12:19:27.909Z,10.90
2023-04-08T12:21:54.710Z,12.33
2023-04-08T12:24:23.907Z,10.30
2023-04-08T12:26:53.176Z,14.63
2023-04-08T12:29:19.998Z,11.47
2023-04-08T12:31:51.876Z,9.97
2023-04-08T12:34:19.019Z,9.87
2023-04-08T12:36:49.366Z,14.60
2023-04-08T12:39:18.465Z,14.77
2023-04-08T12:41:49.980Z,10.53
2023-04-08T12:44:19.463Z,10.10
2023-04-08T12:46:48.627Z,9.13
2023-04-08T12:49:20.027Z,8.07
2023-04-08T12:51:46.906Z,10.60
2023-04-08T12:54:13.867Z,11.47
2023-04-08T12:56:43.458Z,10.70
2023-04-08T12:59:12.441Z,8.20
2023-04-08T13:01:39.250Z,9.80
2023-04-08T13:04:08.527Z,7.40
2023-04-08T13:06:35.312Z,8.07
2023-04-08T13:09:04.637Z,9.53
2023-04-08T13:11:34.311Z,7.57
2023-04-08T13:14:01.180Z,7.37
2023-04-08T13:16:28.141Z,6.10
2023-04-08T13:18:59.639Z,6.90
2023-04-08T13:21:33.982Z,6.50
2023-04-08T13:24:03.098Z,6.67
2023-04-08T13:26:37.177Z,6.33
2023-04-08T13:29:04.308Z,6.80
2023-04-08T13:31:33.865Z,5.33
2023-04-08T13:34:03.101Z,5.80
2023-04-08T13:36:30.062Z,5.70
2023-04-08T13:38:59.357Z,5.90
2023-04-08T13:41:26.345Z,6.93
2023-04-08T13:43:56.753Z,6.60
2023-04-08T13:46:28.211Z,5.97
2023-04-08T13:49:00.215Z,8.47
2023-04-08T13:51:31.785Z,6.77
2023-04-08T13:54:01.692Z,7.37
2023-04-08T13:56:28.534Z,7.43
2023-04-08T13:58:57.936Z,7.07
2023-04-08T14:01:29.692Z,7.63
2023-04-08T14:03:56.663Z,7.57
2023-04-08T14:06:23.421Z,7.60
2023-04-08T14:08:52.798Z,8.13
2023-04-08T14:11:22.079Z,7.63
2023-04-08T14:13:51.059Z,8.17
2023-04-08T14:16:20.437Z,9.53
2023-04-08T14:18:47.233Z,7.63
2023-04-08T14:21:19.721Z,7.27
2023-04-08T14:23:49.070Z,8.13
2023-04-08T14:26:16.106Z,6.37
2023-04-08T14:28:45.116Z,8.37
2023-04-08T14:31:12.730Z,6.63
2023-04-08T14:33:39.984Z,6.70
2023-04-08T14:36:09.437Z,6.73
2023-04-08T14:38:41.810Z,7.30
2023-04-08T14:41:11.048Z,6.10
2023-04-08T14:43:40.218Z,6.73
2023-04-08T14:46:09.343Z,6.10
2023-04-08T14:48:36.263Z,6.73
2023-04-08T14:51:06.287Z,6.37
2023-04-08T14:53:36.849Z,6.90
2023-04-08T14:56:12.536Z,6.20
2023-04-08T14:58:41.519Z,7.00
2023-04-08T15:01:12.111Z,8.00
2023-04-08T15:03:41.491Z,7.37
2023-04-08T15:06:08.750Z,7.77
2023-04-08T15:08:40.280Z,8.80
2023-04-08T15:11:13.533Z,10.37
2023-04-08T15:13:42.844Z,8.97
2023-04-08T15:16:15.814Z,7.53
2023-04-08T15:18:44.909Z,7.40
2023-04-08T15:21:14.129Z,6.93
2023-04-08T15:23:46.046Z,7.73
2023-04-08T15:26:15.296Z,8.33
2023-04-08T15:28:42.351Z,8.10
2023-04-08T15:31:11.876Z,10.80
2023-04-08T15:33:47.072Z,8.53
2023-04-08T15:36:19.773Z,9.77
2023-04-08T15:38:49.138Z,8.67
2023-04-08T15:41:18.426Z,9.57
2023-04-08T15:43:52.204Z,10.33
2023-04-08T15:46:24.386Z,10.77
2023-04-08T15:49:00.217Z,13.17
2023-04-08T15:51:35.152Z,12.83
2023-04-08T15:54:04.529Z,9.43
2023-04-08T15:56:33.829Z,11.30
2023-04-08T15:59:05.866Z,13.10
2023-04-08T16:01:39.754Z,8.30
2023-04-08T16:04:08.996Z,8.17
2023-04-08T16:06:35.824Z,8.67
2023-04-08T16:09:02.580Z,7.60
2023-04-08T16:11:36.228Z,8.33
2023-04-08T16:14:05.076Z,8.37
2023-04-08T16:16:38.782Z,8.77
2023-04-08T16:19:15.172Z,8.43
2023-04-08T16:21:42.123Z,7.70
2023-04-08T16:24:11.127Z,9.10
2023-04-08T16:26:43.893Z,8.83
2023-04-08T16:29:15.860Z,9.47
2023-04-08T16:31:42.843Z,8.23
2023-04-08T16:34:09.672Z,9.63
2023-04-08T16:36:39.167Z,9.70
2023-04-08T16:39:13.056Z,10.53
2023-04-08T16:41:44.869Z,10.77
2023-04-08T16:44:16.240Z,9.03
2023-04-08T16:46:45.644Z,7.70
2023-04-08T16:49:14.498Z,8.70
2023-04-08T16:51:44.742Z,7.57
2023-04-08T16:54:18.890Z,8.20
2023-04-08T16:56:48.229Z,8.03
2023-04-08T16:59:19.720Z,8.20
2023-04-08T17:01:51.955Z,9.47
2023-04-08T17:04:18.817Z,7.33
2023-04-08T17:06:49.303Z,9.13
2023-04-08T17:09:28.735Z,8.30
2023-04-08T17:11:58.650Z,9.23
2023-04-08T17:14:33.393Z,7.47
2023-04-08T17:17:02.485Z,10.53
2023-04-08T17:19:31.518Z,7.30
2023-04-08T17:22:00.840Z,8.77
2023-04-08T17:24:32.957Z,8.57
2023-04-08T17:27:02.118Z,8.10
2023-04-08T17:29:33.650Z,8.57
2023-04-08T17:32:00.483Z,8.30
2023-04-08T17:34:31.437Z,8.10
2023-04-08T17:37:00.520Z,7.73
2023-04-08T17:39:31.504Z,9.80
2023-04-08T17:42:02.313Z,7.70
2023-04-08T17:44:31.967Z,7.90
2023-04-08T17:47:01.279Z,7.30
2023-04-08T17:49:29.377Z,10.53
2023-04-08T17:51:58.495Z,8.40
2023-04-08T17:54:27.774Z,7.60
2023-04-08T17:56:59.706Z,9.03
2023-04-08T17:59:29.430Z,7.90
2023-04-08T18:02:04.251Z,8.23
2023-04-08T18:04:38.365Z,6.50
2023-04-08T18:07:07.562Z,7.20
2023-04-08T18:09:34.496Z,12.07
2023-04-08T18:12:06.543Z,8.50
2023-04-08T18:14:38.468Z,8.20
2023-04-08T18:17:07.403Z,8.93
2023-04-08T18:19:41.252Z,6.73
2023-04-08T18:22:08.031Z,8.17
2023-04-08T18:24:37.400Z,7.63
2023-04-08T18:27:06.666Z,8.00
2023-04-08T18:29:41.353Z,8.43
2023-04-08T18:32:15.091Z,8.87
2023-04-08T18:34:44.201Z,7.93
2023-04-08T18:37:17.066Z,9.70
2023-04-08T18:39:53.365Z,11.43
2023-04-08T18:42:22.204Z,10.57
2023-04-08T18:44:53.724Z,8.60
2023-04-08T18:47:23.545Z,9.20
2023-04-08T18:49:56.678Z,8.57
2023-04-08T18:52:32.316Z,8.90
2023-04-08T18:55:02.841Z,9.17
2023-04-08T18:57:29.858Z,11.17
2023-04-08T18:59:56.650Z,9.47
2023-04-08T19:02:25.803Z,8.33
2023-04-08T19:04:58.318Z,8.70
2023-04-08T19:07:25.122Z,8.50
2023-04-08T19:10:00.166Z,11.03
2023-04-08T19:12:27.153Z,8.97
2023-04-08T19:14:59.485Z,7.93
2023-04-08T19:17:28.579Z,10.90
2023-04-08T19:19:57.832Z,7.37
2023-04-08T19:22:29.978Z,8.83
2023-04-08T19:24:58.823Z,9.77
2023-04-08T19:27:30.909Z,8.17
2023-04-08T19:29:57.653Z,9.07
2023-04-08T19:32:29.746Z,8.77
2023-04-08T19:34:58.956Z,8.70
2023-04-08T19:37:28.282Z,8.90
2023-04-08T19:40:02.130Z,7.80
2023-04-08T19:42:31.898Z,9.80
2023-04-08T19:45:07.083Z,14.20
2023-04-08T19:47:39.905Z,9.57
2023-04-08T19:50:14.675Z,9.80
2023-04-08T19:52:46.437Z,9.57
2023-04-08T19:55:15.506Z,10.27
2023-04-08T19:57:49.907Z,9.40
2023-04-08T20:00:16.767Z,10.53
2023-04-08T20:02:44.500Z,9.50
2023-04-08T20:05:22.923Z,9.20
2023-04-08T20:07:52.684Z,12.23
2023-04-08T20:10:24.688Z,11.17
2023-04-08T20:12:56.241Z,8.13
2023-04-08T20:15:25.171Z,11.20
2023-04-08T20:17:57.387Z,8.63
2023-04-08T20:20:27.678Z,8.53
2023-04-08T20:23:03.149Z,9.60
2023-04-08T20:25:33.189Z,9.40
2023-04-08T20:28:08.548Z,9.03
2023-04-08T20:30:40.965Z,9.20
2023-04-08T20:33:12.660Z,9.27
2023-04-08T20:35:46.967Z,10.80
2023-04-08T20:38:14.762Z,11.00
2023-04-08T20:40:47.075Z,8.90
2023-04-08T20:43:16.959Z,10.57
2023-04-08T20:45:51.061Z,10.30
2023-04-08T20:48:20.105Z,10.27
2023-04-08T20:50:50.647Z,10.63
2023-04-08T20:53:24.789Z,12.50
2023-04-08T20:55:56.412Z,14.90
2023-04-08T20:58:26.197Z,10.80
2023-04-08T21:00:53.409Z,9.97
2023-04-08T21:03:20.877Z,9.30
2023-04-08T21:05:52.984Z,10.33
2023-04-08T21:08:24.501Z,12.03
2023-04-08T21:10:51.361Z,11.50
2023-04-08T21:13:20.511Z,11.33
2023-04-08T21:15:49.812Z,10.93
2023-04-08T21:18:19.160Z,10.63
2023-04-08T21:20:49.889Z,10.43
2023-04-08T21:23:18.911Z,10.73
2023-04-08T21:25:46.476Z,10.03
2023-04-08T21:28:16.083Z,10.80
2023-04-08T21:30:45.789Z,9.03
2023-04-08T21:33:12.656Z,10.40
2023-04-08T21:35:42.067Z,9.47
2023-04-08T21:38:13.681Z,9.17
2023-04-08T21:40:45.359Z,9.40
2023-04-08T21:43:14.655Z,7.87
2023-04-08T21:45:43.930Z,8.90
2023-04-08T21:48:13.432Z,9.00
2023-04-08T21:50:42.447Z,10.23
2023-04-08T21:53:11.985Z,16.60
2023-04-08T21:55:43.640Z,14.83
2023-04-08T21:58:15.320Z,14.60
2023-04-08T22:00:47.491Z,8.67
2023-04-08T22:03:19.428Z,10.13
2023-04-08T22:05:53.244Z,8.90
2023-04-08T22:08:23.205Z,10.03
2023-04-08T22:10:54.558Z,11.17
2023-04-08T22:13:23.733Z,11.70
2023-04-08T22:15:55.473Z,7.97
2023-04-08T22:18:22.296Z,7.67
2023-04-08T22:20:49.083Z,7.87
2023-04-08T22:23:18.129Z,7.30
2023-04-08T22:25:55.030Z,7.87
2023-04-08T22:28:23.903Z,18.07
2023-04-08T22:30:55.138Z,9.77
2023-04-08T22:33:24.118Z,9.00
2023-04-08T22:35:53.513Z,10.17
2023-04-08T22:38:24.890Z,8.53
2023-04-08T22:40:57.126Z,8.73
2023-04-08T22:43:31.174Z,9.13
2023-04-08T22:46:00.128Z,8.63
2023-04-08T22:48:31.790Z,7.00
2023-04-08T22:50:58.521Z,9.00
2023-04-08T22:53:33.238Z,9.63
2023-04-08T22:56:05.175Z,8.40
2023-04-08T22:58:32.080Z,8.10
2023-04-08T23:01:05.317Z,10.30
2023-04-08T23:03:32.136Z,8.13
2023-04-08T23:05:58.941Z,7.57
2023-04-08T23:08:30.975Z,7.53
2023-04-08T23:11:02.386Z,8.17
2023-04-08T23:13:36.856Z,8.97
2023-04-08T23:16:03.964Z,8.20
2023-04-08T23:18:33.114Z,8.10
2023-04-08T23:21:02.410Z,8.97
2023-04-08T23:23:31.612Z,9.23
2023-04-08T23:26:00.781Z,9.20
2023-04-08T23:28:27.521Z,8.87
2023-04-08T23:30:56.710Z,7.30
2023-04-08T23:33:28.288Z,8.40
2023-04-08T23:36:01.087Z,9.40
2023-04-08T23:38:30.302Z,8.87
2023-04-08T23:41:01.918Z,7.60
2023-04-08T23:43:28.651Z,7.80
2023-04-08T23:45:59.918Z,7.27
2023-04-08T23:48:31.650Z,9.00
2023-04-08T23:51:06.984Z,7.83
2023-04-08T23:53:38.407Z,8.17
2023-04-08T23:56:13.158Z,9.27
2023-04-08T23:58:40.016Z,7.30
